Time;durP1;ratioP1;P1;durP2;ratioP2;P2;SDS_P1;SDS_P2;PMS_P1;PMS_P2;Temp;Humidity;BMP_temperature;BMP_pressure;BME280_temperature;BME280_humidity;BME280_pressure;Samples;Min_cycle;Max_cycle;Signal;HPM_P1;HPM_P2
2022/11/27 00:02:53;;;;;;;6.53;5.50;;;1.30;99.90;;;;;;4937170;29;20235;-93
2022/11/27 00:05:20;;;;;;;6.43;5.40;;;1.30;99.90;;;;;;4953548;28;20240;-93
2022/11/27 00:07:47;;;;;;;8.10;5.87;;;1.20;99.90;;;;;;4953585;28;20328;-94
2022/11/27 00:10:17;;;;;;;7.50;5.60;;;1.20;99.90;;;;;;4959737;28;20579;-93
2022/11/27 00:15:30;;;;;;;9.87;7.40;;;1.20;99.90;;;;;;4952888;28;20284;-93
2022/11/27 00:17:57;;;;;;;7.67;5.90;;;1.20;99.90;;;;;;4950940;28;20216;-94
2022/11/27 00:20:24;;;;;;;6.47;5.13;;;1.10;99.90;;;;;;4975878;28;20225;-93
2022/11/27 00:22:51;;;;;;;6.93;5.43;;;1.10;99.90;;;;;;5002254;28;20254;-93
2022/11/27 00:25:18;;;;;;;8.50;5.40;;;1.10;99.90;;;;;;5024381;28;20717;-93
2022/11/27 00:30:27;;;;;;;8.80;7.30;;;1.10;99.90;;;;;;5004853;28;20206;-93
2022/11/27 00:35:34;;;;;;;8.03;5.60;;;1.10;99.90;;;;;;4977943;28;20208;-93
2022/11/27 00:38:01;;;;;;;8.90;4.90;;;1.10;99.90;;;;;;4974565;28;20209;-93
2022/11/27 00:45:53;;;;;;;8.47;5.13;;;1.10;99.90;;;;;;4862954;29;20216;-93
2022/11/27 00:54:29;;;;;;;7.13;4.93;;;1.00;99.90;;;;;;4777778;30;20790;-93
2022/11/27 01:16:53;;;;;;;5.00;4.00;;;0.90;99.90;;;;;;4886038;29;20222;-93
2022/11/27 01:19:23;;;;;;;5.70;4.47;;;0.90;99.90;;;;;;4903979;29;20290;-93
2022/11/27 01:27:37;;;;;;;4.73;4.23;;;0.90;99.90;;;;;;4866773;29;20204;-93
2022/11/27 01:32:49;;;;;;;6.10;4.27;;;0.90;99.90;;;;;;4855257;29;20273;-93
2022/11/27 01:35:16;;;;;;;6.77;4.10;;;0.90;99.90;;;;;;4860823;29;20239;-93
2022/11/27 01:37:44;;;;;;;7.17;4.43;;;1.00;99.90;;;;;;4863071;29;20299;-93
2022/11/27 01:40:12;;;;;;;5.43;3.87;;;1.00;99.90;;;;;;4904574;29;20238;-93
2022/11/27 01:42:39;;;;;;;4.87;3.93;;;1.10;99.90;;;;;;4961480;28;20236;-93
2022/11/27 01:45:19;;;;;;;6.20;4.10;;;1.10;99.90;;;;;;4975579;28;20299;-93
2022/11/27 01:59:08;;;;;;;5.27;3.90;;;1.00;99.90;;;;;;4878230;29;20660;-94
2022/11/27 02:50:41;;;;;;;7.60;3.90;;;0.90;99.90;;;;;;4776781;29;20223;-93
2022/11/27 03:01:46;;;;;;;4.77;3.80;;;0.90;99.90;;;;;;4750861;30;20235;-93
2022/11/27 03:10:12;;;;;;;4.43;3.80;;;1.00;99.90;;;;;;4756228;30;20228;-92
2022/11/27 03:12:38;;;;;;;6.87;4.07;;;0.90;99.90;;;;;;4784242;30;20220;-92
2022/11/27 03:15:05;;;;;;;5.67;4.20;;;0.90;99.90;;;;;;4783135;30;20675;-93
2022/11/27 03:25:46;;;;;;;5.47;3.80;;;0.60;99.90;;;;;;4872875;29;20212;-91
2022/11/27 03:28:17;;;;;;;4.83;4.00;;;0.60;99.90;;;;;;4891719;29;20271;-91
2022/11/27 03:30:44;;;;;;;5.63;4.27;;;0.60;99.90;;;;;;4891015;29;20214;-92
2022/11/27 03:38:37;;;;;;;4.37;3.90;;;0.60;99.90;;;;;;4884311;29;20288;-92
2022/11/27 04:29:39;;;;;;;7.40;4.97;;;0.30;99.90;;;;;;4807108;29;20257;-91
2022/11/27 04:32:06;;;;;;;7.13;4.13;;;0.30;99.90;;;;;;4851083;29;20300;-91
2022/11/27 04:47:52;;;;;;;5.63;4.00;;;0.40;99.30;;;;;;4847322;29;20213;-91
2022/11/27 04:53:42;;;;;;;5.83;3.93;;;0.50;99.30;;;;;;4868623;29;20236;-91
2022/11/27 04:56:09;;;;;;;6.00;4.23;;;0.40;99.60;;;;;;4887684;29;20311;-90
2022/11/27 05:01:23;;;;;;;5.03;4.00;;;0.30;99.90;;;;;;4939851;29;20242;-92
2022/11/27 05:06:31;;;;;;;5.17;4.43;;;0.30;99.90;;;;;;4868628;29;20216;-92
2022/11/27 05:09:00;;;;;;;7.87;4.20;;;0.30;99.90;;;;;;4876341;29;20228;-91
2022/11/27 05:11:47;;;;;;;4.00;3.50;;;0.40;99.90;;;;;;4864224;29;20277;-91
2022/11/27 05:19:40;;;;;;;6.53;4.20;;;0.40;99.30;;;;;;4906059;29;20214;-91
2022/11/27 05:22:07;;;;;;;5.90;4.03;;;0.30;99.20;;;;;;4910585;29;20744;-91
2022/11/27 05:24:34;;;;;;;5.00;4.03;;;0.30;99.30;;;;;;4910278;29;20361;-92
2022/11/27 05:27:01;;;;;;;5.70;3.83;;;0.20;99.20;;;;;;4904548;29;20234;-92
2022/11/27 05:32:34;;;;;;;5.10;3.77;;;0.20;99.80;;;;;;4901577;29;20316;-92
2022/11/27 05:35:01;;;;;;;6.20;4.20;;;0.30;99.30;;;;;;4918462;29;20213;-92
2022/11/27 05:40:15;;;;;;;4.60;3.90;;;0.20;99.60;;;;;;4928300;29;20220;-91
2022/11/27 05:42:47;;;;;;;5.80;4.43;;;0.10;99.70;;;;;;4928430;29;20300;-90
2022/11/27 05:47:59;;;;;;;4.63;4.03;;;0.00;99.90;;;;;;4879657;29;20207;-91
2022/11/27 05:50:26;;;;;;;4.90;3.97;;;0.00;99.90;;;;;;4899549;29;20249;-91
2022/11/27 05:52:55;;;;;;;6.70;4.40;;;0.00;99.90;;;;;;4928565;29;20302;-89
2022/11/27 05:55:53;;;;;;;4.50;3.90;;;0.00;99.90;;;;;;4932993;28;20223;-89
2022/11/27 05:58:43;;;;;;;4.97;3.63;;;0.00;99.90;;;;;;4988303;28;20207;-93
2022/11/27 06:04:05;;;;;;;5.53;3.90;;;0.10;99.90;;;;;;5001044;28;20315;-92
2022/11/27 06:06:41;;;;;;;6.70;4.20;;;0.00;99.90;;;;;;5035308;28;20210;-89
2022/11/27 06:22:59;;;;;;;5.60;4.10;;;-0.10;99.70;;;;;;4849997;29;20225;-90
2022/11/27 06:25:26;;;;;;;5.07;4.00;;;-0.10;99.60;;;;;;4849835;29;20228;-91
2022/11/27 06:27:53;;;;;;;5.67;4.20;;;-0.10;99.70;;;;;;4830531;29;20269;-90
2022/11/27 06:30:21;;;;;;;4.17;3.77;;;-0.20;99.70;;;;;;4820898;29;20214;-91
2022/11/27 06:39:24;;;;;;;4.90;3.60;;;-0.30;99.90;;;;;;4872970;29;20207;-90
2022/11/27 06:42:00;;;;;;;5.20;3.50;;;-0.30;99.90;;;;;;4903204;29;20301;-92
2022/11/27 06:44:36;;;;;;;5.27;3.90;;;-0.30;99.90;;;;;;4922964;29;20240;-91
2022/11/27 06:52:47;;;;;;;5.93;4.50;;;-0.20;99.90;;;;;;4866233;29;20219;-91
2022/11/27 06:55:15;;;;;;;6.10;4.23;;;0.00;99.90;;;;;;4877182;29;20220;-92
2022/11/27 06:57:42;;;;;;;7.53;4.47;;;0.00;99.90;;;;;;4923178;29;20307;-93
2022/11/27 07:11:05;;;;;;;4.90;3.50;;;0.10;99.40;;;;;;4941788;29;20218;-93
2022/11/27 07:24:23;;;;;;;7.07;5.07;;;0.30;99.90;;;;;;4838005;29;20218;-93
2022/11/27 07:32:16;;;;;;;10.57;7.07;;;0.50;99.90;;;;;;4833619;29;20257;-86
2022/11/27 07:34:47;;;;;;;9.47;6.53;;;0.50;99.90;;;;;;4816030;29;20296;-89
2022/11/27 07:37:18;;;;;;;8.83;6.67;;;0.50;99.90;;;;;;4832664;29;20317;-91
2022/11/27 07:39:47;;;;;;;8.67;6.07;;;0.50;99.90;;;;;;4842525;29;20288;-91
2022/11/27 07:42:17;;;;;;;8.67;6.60;;;0.60;99.90;;;;;;4867712;29;20298;-91
2022/11/27 07:47:27;;;;;;;8.33;6.40;;;0.70;99.90;;;;;;4866434;29;20222;-93
2022/11/27 07:50:00;;;;;;;7.70;5.93;;;0.90;99.90;;;;;;4898849;29;20278;-91
2022/11/27 08:04:14;;;;;;;7.27;5.47;;;1.50;99.50;;;;;;5047450;28;20230;-93
2022/11/27 08:07:11;;;;;;;7.47;6.00;;;1.80;98.70;;;;;;5044596;28;20222;-92
2022/11/27 08:09:49;;;;;;;7.63;5.90;;;1.80;98.00;;;;;;5084064;22;20225;-93
2022/11/27 08:12:17;;;;;;;7.27;5.60;;;1.80;98.10;;;;;;5072373;28;20238;-92
2022/11/27 08:14:44;;;;;;;7.47;6.03;;;1.70;98.10;;;;;;5298538;22;20229;-90
2022/11/27 08:23:00;;;;;;;5.93;5.17;;;2.00;98.90;;;;;;5530024;22;20258;-94
2022/11/27 08:25:27;;;;;;;5.47;4.77;;;2.30;97.90;;;;;;5080787;28;20193;-93
2022/11/27 08:28:11;;;;;;;5.23;4.73;;;2.50;97.50;;;;;;5376254;22;20266;-94
2022/11/27 08:31:12;;;;;;;7.23;5.10;;;2.80;97.00;;;;;;5100429;28;20208;-91
2022/11/27 08:36:17;;;;;;;6.57;5.17;;;3.20;96.50;;;;;;5573567;22;20694;-91
2022/11/27 08:41:29;;;;;;;5.43;4.43;;;3.80;94.90;;;;;;5058781;28;20221;-94
2022/11/27 08:43:59;;;;;;;5.63;4.10;;;4.20;93.90;;;;;;5062694;28;20280;-96
2022/11/27 08:46:26;;;;;;;5.07;4.47;;;4.50;91.90;;;;;;5063993;28;20243;-95
2022/11/27 09:01:27;;;;;;;4.65;4.18;;;7.20;74.10;;;;;;4910664;29;20268;-96
2022/11/27 09:17:23;;;;;;;4.97;4.07;;;9.20;51.50;;;;;;4899708;29;20218;-93
2022/11/27 09:19:50;;;;;;;5.05;4.22;;;9.50;45.80;;;;;;4911079;29;20291;-93
2022/11/27 09:22:17;;;;;;;4.43;4.03;;;9.30;46.10;;;;;;4895419;29;20207;-92
2022/11/27 09:24:47;;;;;;;4.35;3.95;;;9.10;47.60;;;;;;4895429;29;20267;-91
2022/11/27 09:32:39;;;;;;;4.43;3.97;;;8.90;47.50;;;;;;4892736;29;20311;-88
2022/11/27 09:47:22;;;;;;;4.68;4.15;;;11.10;36.90;;;;;;4931153;29;20217;-91
2022/11/27 09:49:58;;;;;;;5.28;4.78;;;11.20;32.30;;;;;;4933304;29;20349;-90
2022/11/27 09:52:39;;;;;;;4.78;4.38;;;10.30;35.70;;;;;;4932109;29;20242;-92
2022/11/27 09:58:04;;;;;;;4.47;4.07;;;9.10;42.90;;;;;;4897729;29;20242;-91
2022/11/27 10:11:41;;;;;;;5.03;3.70;;;8.10;46.80;;;;;;4834710;29;20225;-91
2022/11/27 10:38:01;;;;;;;3.17;2.88;;;7.90;48.40;;;;;;4769689;30;20615;-93
2022/11/27 10:51:11;;;;;;;3.70;3.13;;;8.80;47.40;;;;;;4757443;30;20685;-91
2022/11/27 10:56:42;;;;;;;4.10;3.30;;;8.00;51.80;;;;;;4803225;29;20197;-89
2022/11/27 10:59:13;;;;;;;3.85;3.50;;;7.90;54.10;;;;;;4838095;29;20205;-89
2022/11/27 11:01:44;;;;;;;3.83;3.42;;;7.30;58.80;;;;;;4850040;29;20238;-89
2022/11/27 11:07:55;;;;;;;4.20;3.80;;;6.20;76.40;;;;;;4845976;29;20221;-93
2022/11/27 11:27:40;;;;;;;5.05;3.67;;;6.40;79.30;;;;;;4871297;29;20203;-93
2022/11/27 11:37:30;;;;;;;5.32;3.40;;;6.60;81.80;;;;;;4860954;29;20559;-93
2022/11/27 11:43:26;;;;;;;5.20;3.80;;;6.50;82.80;;;;;;4919791;29;20230;-95
2022/11/27 11:46:19;;;;;;;4.43;3.45;;;6.60;79.80;;;;;;4920473;29;20282;-93
2022/11/27 11:49:21;;;;;;;4.63;3.70;;;6.60;79.10;;;;;;4913443;29;20203;-95
2022/11/27 11:55:16;;;;;;;5.90;4.53;;;6.40;82.40;;;;;;5247614;22;20259;-92
2022/11/27 12:01:45;;;;;;;6.47;5.03;;;6.30;83.70;;;;;;5005240;28;20211;-94
2022/11/27 12:07:25;;;;;;;6.80;5.53;;;6.00;89.60;;;;;;4997490;28;20208;-94
2022/11/27 12:09:57;;;;;;;5.93;4.93;;;5.90;89.60;;;;;;5006094;28;20246;-93
2022/11/27 12:15:38;;;;;;;6.37;5.43;;;5.70;90.40;;;;;;5000190;28;20196;-94
2022/11/27 12:18:28;;;;;;;5.90;5.30;;;5.50;90.70;;;;;;5005381;28;20207;-92
2022/11/27 12:21:11;;;;;;;6.00;5.30;;;5.40;91.30;;;;;;4995817;28;20200;-93
2022/11/27 12:35:10;;;;;;;6.97;5.60;;;4.80;93.50;;;;;;5176926;22;20231;-93
2022/11/27 12:37:56;;;;;;;7.57;5.80;;;4.80;93.60;;;;;;5075388;28;20205;-94
2022/11/27 12:40:35;;;;;;;9.37;6.13;;;4.90;93.60;;;;;;5070001;28;20662;-92
2022/11/27 12:43:20;;;;;;;9.03;5.93;;;4.90;93.10;;;;;;5450423;22;20229;-93
2022/11/27 12:49:36;;;;;;;7.80;5.90;;;4.90;93.40;;;;;;5071082;28;20219;-92
2022/11/27 12:52:13;;;;;;;7.50;6.23;;;4.90;94.40;;;;;;5065891;28;20221;-90
2022/11/27 12:58:12;;;;;;;7.43;5.63;;;5.10;93.60;;;;;;5068465;28;20192;-88
2022/11/27 13:00:50;;;;;;;8.20;5.80;;;5.40;92.50;;;;;;5076134;28;20280;-92
2022/11/27 13:06:52;;;;;;;8.53;6.80;;;5.00;93.00;;;;;;5067091;28;20193;-88
2022/11/27 13:09:27;;;;;;;8.77;6.50;;;4.80;93.60;;;;;;5073253;28;20704;-92
2022/11/27 13:12:01;;;;;;;7.57;6.17;;;4.60;94.70;;;;;;5064066;28;20697;-91
2022/11/27 13:14:30;;;;;;;7.53;6.53;;;4.50;95.00;;;;;;5067359;28;20284;-88
2022/11/27 13:17:04;;;;;;;7.87;6.57;;;4.50;95.00;;;;;;5062792;28;20234;-87
2022/11/27 13:19:34;;;;;;;9.27;7.80;;;4.40;95.80;;;;;;5059075;28;20248;-89
2022/11/27 13:22:05;;;;;;;8.10;7.30;;;4.50;95.10;;;;;;5055068;28;20267;-92
2022/11/27 13:24:36;;;;;;;8.13;7.33;;;4.50;95.00;;;;;;5058777;28;20266;-91
2022/11/27 13:27:08;;;;;;;9.60;7.77;;;4.30;95.00;;;;;;5050584;28;20217;-89
2022/11/27 13:29:42;;;;;;;14.03;11.17;;;4.20;96.30;;;;;;5059337;28;20213;-89
2022/11/27 13:32:16;;;;;;;14.17;9.83;;;4.30;97.00;;;;;;5060390;28;20228;-91
2022/11/27 13:34:48;;;;;;;11.43;9.87;;;4.20;96.80;;;;;;5058214;28;20221;-91
2022/11/27 13:37:56;;;;;;;12.77;9.53;;;4.50;96.40;;;;;;5056917;28;20299;-91
2022/11/27 13:47:20;;;;;;;10.07;8.00;;;4.40;95.80;;;;;;4988845;28;20238;-90
2022/11/27 13:50:19;;;;;;;8.73;7.37;;;4.40;96.30;;;;;;4984324;28;20199;-90
2022/11/27 13:53:04;;;;;;;9.80;7.60;;;4.50;96.00;;;;;;4991712;28;20222;-91
2022/11/27 13:55:59;;;;;;;10.83;8.23;;;4.30;95.70;;;;;;4983002;28;20208;-91
2022/11/27 13:58:37;;;;;;;9.90;7.93;;;4.20;96.20;;;;;;5010119;28;20202;-92
2022/11/27 14:01:19;;;;;;;8.93;7.70;;;4.10;96.60;;;;;;5040381;28;20297;-90
2022/11/27 14:03:46;;;;;;;11.67;8.23;;;4.10;96.60;;;;;;5046170;28;20685;-90
2022/11/27 14:06:21;;;;;;;9.80;8.20;;;4.10;96.70;;;;;;5043764;28;20675;-90
2022/11/27 14:09:08;;;;;;;11.83;8.23;;;3.90;96.90;;;;;;5043546;28;20285;-90
2022/11/27 14:11:40;;;;;;;11.37;8.93;;;3.80;97.40;;;;;;5040530;28;20212;-90
2022/11/27 14:14:20;;;;;;;9.57;8.07;;;3.90;97.50;;;;;;5044612;28;20230;-91
2022/11/27 14:16:56;;;;;;;9.47;7.93;;;3.90;97.30;;;;;;5040535;28;20289;-91
2022/11/27 14:19:44;;;;;;;12.43;8.23;;;4.00;97.50;;;;;;5042931;28;20658;-90
2022/11/27 14:22:32;;;;;;;10.73;8.37;;;4.00;97.40;;;;;;5036362;28;20225;-90
2022/11/27 14:25:00;;;;;;;11.40;9.83;;;4.00;97.50;;;;;;5044092;28;20221;-90
2022/11/27 14:28:24;;;;;;;13.30;8.93;;;4.10;97.50;;;;;;5003071;28;20293;-90
2022/11/27 14:30:56;;;;;;;11.33;8.33;;;4.20;96.80;;;;;;5003647;28;20644;-91
2022/11/27 14:40:32;;;;;;;11.07;8.33;;;3.90;97.40;;;;;;5008393;28;20654;-90
2022/11/27 14:43:41;;;;;;;10.10;8.27;;;3.70;97.80;;;;;;5018485;28;20210;-90
2022/11/27 14:46:20;;;;;;;11.07;8.47;;;3.70;98.00;;;;;;5057526;28;20779;-89
2022/11/27 14:48:48;;;;;;;12.40;9.40;;;3.60;98.20;;;;;;5068393;28;20224;-89
2022/11/27 14:51:18;;;;;;;11.63;8.87;;;3.40;98.80;;;;;;5067217;28;20295;-89
2022/11/27 14:53:47;;;;;;;11.27;8.43;;;3.40;98.80;;;;;;5066766;28;20592;-92
2022/11/27 14:56:17;;;;;;;11.63;8.37;;;3.40;98.80;;;;;;5060856;28;20292;-93
2022/11/27 15:01:38;;;;;;;13.13;9.27;;;3.40;99.30;;;;;;5022819;28;20261;-91
2022/11/27 15:04:33;;;;;;;11.87;8.93;;;3.30;99.10;;;;;;5016255;28;20277;-90
2022/11/27 15:07:00;;;;;;;12.90;9.17;;;3.20;99.30;;;;;;5028139;28;20198;-89
2022/11/27 15:09:55;;;;;;;13.53;9.47;;;3.00;99.80;;;;;;5028830;28;20290;-90
2022/11/27 15:12:33;;;;;;;11.97;8.97;;;2.90;99.80;;;;;;5026107;28;20293;-90
2022/11/27 15:15:08;;;;;;;12.57;9.30;;;3.00;99.80;;;;;;5021506;28;20199;-90
2022/11/27 15:17:52;;;;;;;11.97;9.27;;;2.90;99.80;;;;;;5023306;28;20198;-91
2022/11/27 15:20:56;;;;;;;11.90;9.00;;;2.90;99.90;;;;;;5033041;28;20276;-91
2022/11/27 15:23:52;;;;;;;14.00;9.67;;;2.80;99.90;;;;;;5036198;28;20203;-89
2022/11/27 15:26:54;;;;;;;12.90;9.03;;;2.80;99.90;;;;;;5020705;28;20202;-90
2022/11/27 15:29:35;;;;;;;13.63;9.57;;;2.70;99.90;;;;;;5021337;28;20208;-90
2022/11/27 15:32:17;;;;;;;12.07;9.50;;;2.70;99.90;;;;;;5032463;28;20205;-93
2022/11/27 15:34:44;;;;;;;17.20;12.83;;;2.70;99.90;;;;;;5067929;28;20226;-88
2022/11/27 15:37:47;;;;;;;9.00;7.43;;;2.70;99.90;;;;;;5068432;28;20288;-88
2022/11/27 15:40:36;;;;;;;10.80;8.80;;;2.70;99.80;;;;;;5069865;28;20283;-88
2022/11/27 15:43:11;;;;;;;9.30;7.20;;;2.70;99.80;;;;;;5068726;28;20283;-89
2022/11/27 15:45:49;;;;;;;8.73;7.10;;;2.70;99.80;;;;;;5064877;28;20227;-89
2022/11/27 15:48:18;;;;;;;9.50;7.97;;;2.70;99.80;;;;;;5067792;28;20202;-89
2022/11/27 15:50:48;;;;;;;9.03;7.43;;;2.70;99.80;;;;;;5063747;28;20293;-89
2022/11/27 15:53:41;;;;;;;24.40;8.33;;;2.70;99.70;;;;;;5063699;28;20294;-87
2022/11/27 15:56:18;;;;;;;12.30;7.70;;;2.60;99.20;;;;;;5072620;28;20244;-91
2022/11/27 15:59:00;;;;;;;12.77;8.43;;;2.60;99.10;;;;;;5076084;28;20224;-92
2022/11/27 16:02:27;;;;;;;16.93;10.93;;;2.60;99.40;;;;;;5069237;28;20197;-90
2022/11/27 16:05:09;;;;;;;13.20;9.93;;;2.70;99.80;;;;;;5069101;28;20222;-89
2022/11/27 16:14:25;;;;;;;12.00;8.60;;;2.60;99.70;;;;;;5058177;28;20199;-86
2022/11/27 16:17:06;;;;;;;11.07;8.53;;;2.60;99.70;;;;;;5068219;28;20209;-86
2022/11/27 16:22:56;;;;;;;10.23;8.33;;;2.60;99.40;;;;;;5067087;28;20241;-92
2022/11/27 16:29:05;;;;;;;13.67;10.20;;;2.80;99.80;;;;;;5078002;28;20207;-91
2022/11/27 16:35:37;;;;;;;12.10;8.37;;;3.30;99.30;;;;;;5077240;28;20165;-90
2022/11/27 16:42:00;;;;;;;13.63;8.27;;;3.00;97.60;;;;;;5077484;28;20219;-91
2022/11/27 16:48:05;;;;;;;14.27;9.07;;;3.10;99.90;;;;;;5076511;28;20227;-91
2022/11/27 16:51:11;;;;;;;12.37;8.63;;;3.20;98.10;;;;;;5061919;28;20292;-90
2022/11/27 17:20:32;;;;;;;11.57;9.17;;;2.40;98.30;;;;;;5023724;28;20225;-87
2022/11/27 17:23:06;;;;;;;20.23;9.70;;;2.40;99.00;;;;;;5029684;28;20230;-88
2022/11/27 17:29:51;;;;;;;20.37;8.20;;;2.30;99.20;;;;;;5020825;28;20263;-90
2022/11/27 17:32:25;;;;;;;15.50;11.07;;;2.10;99.60;;;;;;5031889;28;20285;-90
2022/11/27 17:35:06;;;;;;;13.50;9.17;;;2.20;99.80;;;;;;5053228;28;20277;-91
2022/11/27 17:37:34;;;;;;;12.30;9.37;;;2.20;99.60;;;;;;5048946;28;20234;-87
2022/11/27 17:40:01;;;;;;;9.47;7.20;;;2.30;99.70;;;;;;5017386;28;20229;-90
2022/11/27 17:42:30;;;;;;;12.17;8.20;;;2.20;99.50;;;;;;5032151;28;20234;-88
2022/11/27 17:44:57;;;;;;;15.07;8.93;;;2.10;99.20;;;;;;5031309;28;20230;-85
2022/11/27 17:47:25;;;;;;;11.30;8.67;;;1.90;99.60;;;;;;5009460;28;20285;-88
2022/11/27 17:53:47;;;;;;;10.90;8.40;;;2.10;99.60;;;;;;5024376;28;20218;-91
2022/11/27 17:59:59;;;;;;;22.73;8.27;;;2.20;99.50;;;;;;5029841;28;20201;-88
2022/11/27 18:03:17;;;;;;;11.40;8.57;;;1.90;99.60;;;;;;5034458;28;20722;-89
2022/11/27 18:06:14;;;;;;;13.67;9.63;;;1.90;99.90;;;;;;5036671;28;20210;-88
2022/11/27 18:09:23;;;;;;;13.70;8.10;;;2.10;99.90;;;;;;5027578;28;20674;-89
2022/11/27 18:12:00;;;;;;;10.23;8.17;;;2.20;99.80;;;;;;5026415;28;20222;-89
2022/11/27 18:14:28;;;;;;;14.00;8.20;;;2.20;99.80;;;;;;5012362;28;20294;-91
2022/11/27 18:17:15;;;;;;;11.73;8.40;;;2.20;99.70;;;;;;5029088;28;20313;-89
2022/11/27 18:19:43;;;;;;;10.67;8.03;;;2.00;99.90;;;;;;5034431;28;20245;-90
2022/11/27 18:22:20;;;;;;;19.27;9.07;;;2.00;99.90;;;;;;5018227;28;20282;-89
2022/11/27 18:25:11;;;;;;;12.60;9.10;;;2.00;99.90;;;;;;5029563;28;20240;-89
2022/11/27 18:27:42;;;;;;;13.17;8.93;;;2.00;99.90;;;;;;5049234;28;20308;-89
2022/11/27 18:30:24;;;;;;;12.33;8.93;;;2.10;99.90;;;;;;5036166;28;20277;-89
2022/11/27 18:33:17;;;;;;;12.10;8.93;;;2.10;99.90;;;;;;5021222;28;20222;-90
2022/11/27 18:35:44;;;;;;;11.70;8.47;;;2.20;99.90;;;;;;5032824;28;20230;-88
2022/11/27 18:38:15;;;;;;;12.50;8.37;;;2.20;99.90;;;;;;5022724;28;20199;-87
2022/11/27 18:41:29;;;;;;;17.33;8.70;;;2.00;99.90;;;;;;5020523;28;20203;-90
2022/11/27 18:44:00;;;;;;;16.60;8.93;;;2.00;99.90;;;;;;5033824;28;20288;-89
2022/11/27 18:46:36;;;;;;;10.83;8.77;;;2.00;99.90;;;;;;5029371;28;20305;-89
2022/11/27 18:49:32;;;;;;;17.83;9.77;;;2.20;99.90;;;;;;5034225;28;20194;-89
2022/11/27 18:52:12;;;;;;;18.13;10.03;;;2.20;99.90;;;;;;5032707;28;20209;-89
2022/11/27 18:55:08;;;;;;;15.93;9.50;;;2.30;99.90;;;;;;5027067;28;20619;-89
2022/11/27 18:57:59;;;;;;;11.60;8.97;;;2.30;99.90;;;;;;5033670;28;20210;-89
2022/11/27 19:00:36;;;;;;;13.27;9.80;;;2.40;99.90;;;;;;5027821;28;20225;-89
2022/11/27 19:03:06;;;;;;;13.90;9.83;;;2.50;99.90;;;;;;5028806;28;20249;-89
2022/11/27 19:05:35;;;;;;;12.57;9.73;;;2.40;99.90;;;;;;5031325;28;20321;-90
2022/11/27 19:08:03;;;;;;;14.23;10.10;;;2.50;99.90;;;;;;5009860;28;20290;-88
2022/11/27 19:10:32;;;;;;;14.17;10.47;;;2.50;99.90;;;;;;5027180;28;20277;-86
2022/11/27 19:13:00;;;;;;;14.93;9.93;;;2.40;99.90;;;;;;5031406;28;20191;-90
2022/11/27 19:15:27;;;;;;;13.67;10.30;;;2.30;99.90;;;;;;5044961;28;20579;-89
2022/11/27 19:17:54;;;;;;;16.87;10.67;;;2.50;99.90;;;;;;5042264;28;20655;-88
2022/11/27 19:20:21;;;;;;;15.60;10.87;;;2.40;99.90;;;;;;5044449;28;20254;-89
2022/11/27 19:22:48;;;;;;;15.87;11.47;;;2.30;99.90;;;;;;5026601;28;20198;-89
2022/11/27 19:25:15;;;;;;;14.27;10.87;;;2.40;99.90;;;;;;5022174;28;20232;-88
2022/11/27 19:27:43;;;;;;;14.30;10.70;;;2.50;99.90;;;;;;5025167;28;20281;-88
2022/11/27 19:30:12;;;;;;;13.83;10.27;;;2.40;99.90;;;;;;5041362;28;20315;-88
2022/11/27 19:32:39;;;;;;;13.90;10.97;;;2.50;99.90;;;;;;5046939;28;20289;-90
2022/11/27 19:35:08;;;;;;;14.77;10.93;;;2.50;99.90;;;;;;5040206;28;20206;-90
2022/11/27 19:37:35;;;;;;;14.43;10.77;;;2.50;99.90;;;;;;5041089;28;20308;-88
2022/11/27 19:40:03;;;;;;;15.37;11.73;;;2.50;99.90;;;;;;5025485;28;20198;-88
2022/11/27 19:42:36;;;;;;;20.10;13.30;;;2.50;99.90;;;;;;5041454;28;20222;-89
2022/11/27 19:45:05;;;;;;;17.77;13.27;;;2.70;99.90;;;;;;5038685;28;20222;-88
2022/11/27 19:47:32;;;;;;;17.63;13.33;;;2.60;99.90;;;;;;5041190;28;20274;-88
2022/11/27 19:49:59;;;;;;;14.37;10.67;;;2.70;99.80;;;;;;5026769;28;20741;-88
2022/11/27 19:52:26;;;;;;;13.70;10.30;;;2.70;99.80;;;;;;5022903;28;20293;-88
2022/11/27 19:54:54;;;;;;;14.87;11.17;;;2.70;99.80;;;;;;5045039;28;20766;-88
2022/11/27 19:57:21;;;;;;;14.70;11.37;;;2.60;99.70;;;;;;5026568;28;20213;-88
2022/11/27 19:59:47;;;;;;;15.00;11.77;;;2.60;99.70;;;;;;5014662;28;20198;-89
2022/11/27 20:02:16;;;;;;;13.97;10.77;;;2.50;99.70;;;;;;5040792;28;20202;-89
2022/11/27 20:04:43;;;;;;;14.17;10.87;;;2.50;99.70;;;;;;5023597;28;20876;-90
2022/11/27 20:07:10;;;;;;;15.17;10.83;;;2.60;99.70;;;;;;5043057;28;20225;-88
2022/11/27 20:09:37;;;;;;;14.53;10.90;;;2.50;99.70;;;;;;5046414;28;20203;-89
2022/11/27 20:12:04;;;;;;;14.23;11.27;;;2.50;99.70;;;;;;5044837;28;20931;-89
2022/11/27 20:14:31;;;;;;;13.87;10.50;;;2.50;99.70;;;;;;5031138;28;20235;-88
2022/11/27 20:16:58;;;;;;;17.57;10.57;;;2.50;99.70;;;;;;5043062;28;20678;-88
2022/11/27 20:19:30;;;;;;;15.30;11.20;;;2.50;99.70;;;;;;5050097;28;20297;-87
2022/11/27 20:21:57;;;;;;;15.07;11.30;;;2.60;99.70;;;;;;5049662;28;20287;-88
2022/11/27 20:24:24;;;;;;;15.50;11.03;;;2.60;99.70;;;;;;5032258;28;20311;-88
2022/11/27 20:27:21;;;;;;;15.60;11.57;;;2.60;99.70;;;;;;5027297;28;20228;-88
2022/11/27 20:29:48;;;;;;;13.83;10.77;;;2.50;99.90;;;;;;4992592;28;20290;-89
2022/11/27 20:32:15;;;;;;;14.03;10.87;;;2.50;99.70;;;;;;5044488;28;20293;-89
2022/11/27 20:34:44;;;;;;;12.53;10.07;;;2.50;99.70;;;;;;5028954;28;20293;-91
2022/11/27 20:37:12;;;;;;;13.67;10.83;;;2.50;99.70;;;;;;5044727;28;20732;-88
2022/11/27 20:39:39;;;;;;;12.80;9.97;;;2.50;99.70;;;;;;5024422;28;20725;-89
2022/11/27 20:42:06;;;;;;;16.13;11.93;;;2.50;99.70;;;;;;5044289;28;20642;-90
2022/11/27 20:44:33;;;;;;;16.63;13.07;;;2.50;99.70;;;;;;5044013;28;20739;-88
2022/11/27 20:47:06;;;;;;;22.50;15.23;;;2.60;99.70;;;;;;5043491;28;20237;-90
2022/11/27 20:49:33;;;;;;;16.30;12.87;;;2.50;99.70;;;;;;5047543;28;20313;-89
2022/11/27 20:52:04;;;;;;;15.73;10.87;;;2.40;99.70;;;;;;5030618;28;20684;-89
2022/11/27 20:54:31;;;;;;;15.07;10.90;;;2.50;99.50;;;;;;5044206;28;20230;-89
2022/11/27 20:57:00;;;;;;;13.47;10.80;;;2.50;99.60;;;;;;5041532;28;20229;-89
2022/11/27 20:59:27;;;;;;;16.13;12.47;;;2.50;99.30;;;;;;5041998;28;20487;-90
2022/11/27 21:01:54;;;;;;;15.27;10.83;;;2.50;99.70;;;;;;5044708;28;20197;-88
2022/11/27 21:04:23;;;;;;;19.30;13.83;;;2.50;99.40;;;;;;5045883;28;20210;-88
2022/11/27 21:06:51;;;;;;;13.37;10.53;;;2.40;99.50;;;;;;5042761;28;20249;-88
2022/11/27 21:09:20;;;;;;;13.73;10.27;;;2.40;99.60;;;;;;5024092;28;20203;-88
2022/11/27 21:11:47;;;;;;;12.70;10.00;;;2.50;99.70;;;;;;5043817;28;20206;-89
2022/11/27 21:14:15;;;;;;;14.03;10.77;;;2.50;99.50;;;;;;5061735;28;20356;-88
2022/11/27 21:16:47;;;;;;;16.30;12.50;;;2.30;99.10;;;;;;5037347;28;20210;-89
2022/11/27 21:19:20;;;;;;;14.57;10.63;;;2.30;99.70;;;;;;5034402;28;20240;-91
2022/11/27 21:21:47;;;;;;;14.27;11.47;;;2.30;99.70;;;;;;5037675;28;20308;-87
2022/11/27 21:24:20;;;;;;;14.80;11.30;;;2.30;99.70;;;;;;5037179;28;20233;-88
2022/11/27 21:26:48;;;;;;;13.27;10.00;;;2.30;99.70;;;;;;5032820;28;20236;-87
2022/11/27 21:29:15;;;;;;;12.57;9.80;;;2.40;99.60;;;;;;5034268;28;20349;-87
2022/11/27 21:31:43;;;;;;;16.33;10.97;;;2.30;99.70;;;;;;5046851;28;20236;-88
2022/11/27 21:34:11;;;;;;;13.50;10.57;;;2.30;99.50;;;;;;5039664;28;20249;-89
2022/11/27 21:36:38;;;;;;;13.53;10.10;;;2.30;99.60;;;;;;5038878;28;20232;-88
2022/11/27 21:39:08;;;;;;;12.70;10.23;;;2.40;99.20;;;;;;5035838;28;20221;-88
2022/11/27 21:41:36;;;;;;;13.23;10.63;;;2.40;98.90;;;;;;5031654;28;20227;-88
2022/11/27 21:44:05;;;;;;;12.33;9.83;;;2.40;99.10;;;;;;5038862;28;20599;-88
2022/11/27 21:46:36;;;;;;;14.13;11.13;;;2.40;99.20;;;;;;5032334;28;20293;-86
2022/11/27 21:49:03;;;;;;;16.13;11.07;;;2.20;99.40;;;;;;5034734;28;20309;-88
2022/11/27 21:51:30;;;;;;;14.03;10.83;;;2.20;99.60;;;;;;5037421;28;20225;-88
2022/11/27 21:53:58;;;;;;;12.73;10.43;;;2.30;99.70;;;;;;5039029;28;20356;-87
2022/11/27 21:56:27;;;;;;;13.20;10.83;;;2.30;99.70;;;;;;5028919;28;20312;-89
2022/11/27 21:58:56;;;;;;;11.73;9.93;;;2.40;99.70;;;;;;5033056;28;20644;-90
2022/11/27 22:01:27;;;;;;;12.33;9.73;;;2.40;99.30;;;;;;5036776;28;20722;-90
2022/11/27 22:03:55;;;;;;;12.00;9.67;;;2.40;99.30;;;;;;5032468;28;20218;-88
2022/11/27 22:06:25;;;;;;;12.27;10.40;;;2.40;99.30;;;;;;5034124;28;20233;-90
2022/11/27 22:08:54;;;;;;;11.97;10.00;;;2.30;99.40;;;;;;5039116;28;20229;-89
2022/11/27 22:11:25;;;;;;;11.93;9.87;;;2.40;99.30;;;;;;5035593;28;20229;-89
2022/11/27 22:13:56;;;;;;;11.80;8.93;;;2.40;99.10;;;;;;5037738;28;20226;-89
2022/11/27 22:16:25;;;;;;;13.10;10.03;;;2.50;98.50;;;;;;5047805;28;20750;-88
2022/11/27 22:18:54;;;;;;;11.10;8.97;;;2.50;98.30;;;;;;5045292;28;20419;-89
2022/11/27 22:21:21;;;;;;;11.17;8.70;;;2.40;98.20;;;;;;5044308;28;20208;-88
2022/11/27 22:23:48;;;;;;;13.37;9.20;;;2.50;98.40;;;;;;5047785;28;20684;-88
2022/11/27 22:26:16;;;;;;;14.70;9.40;;;2.50;98.20;;;;;;5051203;28;20222;-88
2022/11/27 22:28:43;;;;;;;11.20;8.90;;;2.30;98.50;;;;;;5047976;28;20375;-90